Startpagina
METAR-TAF:

METAR-TAF

Vliegvelden :

Baker City, Oregon, Verenigde Staten

breedte: 44-50-14N, lengte: 117-48-33W, hoogte: 1028 m

Actueel weer

Dit bericht is 39 minuten geleden gemaakt, om 12:53 UTC
Weinig wind
Temperatuur 12°C
Vochtigheid 82%
Druk 1020 hPa
Zicht: 16.1 km
Onbewolkt

METAR: KBKE 171253Z AUTO 00000KT 10SM CLR 12/09 A3012 RMK AO2 SLP174 T01170094

Tijdstip: 06:32 (13:32 UTC)

Verwachting

Dit bericht is 2 uur en het 12 minuten geleden gemaakt, om 11:20 UTC
Verwachting geldig van 17 om 12 UTC tot 18 om 12 UTC
Wind 6 kt uit variabele richting
Zicht: 10 km
Onbewolkt

TAF: KBKE 171120Z 1712/1812 VRB06KT P6SM SKC

Waarnemingen en weersverwachtingen van meer dan 4000 vliegvelden (METAR en TAF).

De beschikbare stations zijn de gele en rode punten op de kaart.

Ga met uw muis naar het station om de naam te zien.

Klik dan om waarnemingen en weersverwachtingen te zien.

kaart wijzigen: klik op de groene knoppen met een zwart kruis om in te zoomen, op de groene knop met een streepje om uit te zoomen of op de groene pijlen voor aangrenzende kaarten.


METAR-TAF: